Time;durP1;ratioP1;P1;durP2;ratioP2;P2;SDS_P1;SDS_P2;PMS_P1;PMS_P2;Temp;Humidity;BMP_temperature;BMP_pressure;BME280_temperature;BME280_humidity;BME280_pressure;Samples;Min_cycle;Max_cycle;Signal;HPM_P1;HPM_P2
2022/09/18 00:01:31;;;;;;;;;;;;;;;13.44;100.00;98752.72;5072894;28;19920;-42
2022/09/18 00:03:57;;;;;;;;;;;;;;;13.00;100.00;98750.41;5074037;28;19928;-42
2022/09/18 00:06:24;;;;;;;;;;;;;;;13.24;100.00;98751.84;5074227;28;19922;-42
2022/09/18 00:08:51;;;;;;;;;;;;;;;13.25;100.00;98755.28;5073018;28;19942;-42
2022/09/18 00:11:16;;;;;;;;;;;;;;;12.99;100.00;98759.91;5072484;28;19959;-42
2022/09/18 00:13:42;;;;;;;;;;;;;;;13.50;100.00;98757.56;5055584;28;20444;-42
2022/09/18 00:16:08;;;;;;;;;;;;;;;13.06;100.00;98756.13;5073736;28;19926;-49
2022/09/18 00:18:34;;;;;;;;;;;;;;;13.33;100.00;98754.03;5073396;28;19920;-47
2022/09/18 00:21:03;;;;;;;;;;;;;;;13.12;100.00;98755.03;5072940;28;19930;-49
2022/09/18 00:23:28;;;;;;;;;;;;;;;13.25;100.00;98753.56;5074087;28;19930;-46
2022/09/18 00:25:53;;;;;;;;;;;;;;;13.26;100.00;98759.56;5072160;28;19924;-47
2022/09/18 00:28:18;;;;;;;;;;;;;;;12.81;100.00;98769.31;5072852;28;19978;-46
2022/09/18 00:30:43;;;;;;;;;;;;;;;13.21;100.00;98770.13;5073619;28;20007;-48
2022/09/18 00:33:09;;;;;;;;;;;;;;;12.98;100.00;98763.41;5073568;28;19920;-47
2022/09/18 00:35:34;;;;;;;;;;;;;;;13.45;100.00;98767.31;5071774;28;20026;-46
2022/09/18 00:37:59;;;;;;;;;;;;;;;12.98;100.00;98759.06;5071894;28;19920;-46
2022/09/18 00:40:24;;;;;;;;;;;;;;;13.17;100.00;98761.66;5074430;28;19978;-46
2022/09/18 00:42:50;;;;;;;;;;;;;;;12.84;100.00;98758.88;5072745;28;19927;-46
2022/09/18 00:45:15;;;;;;;;;;;;;;;13.32;100.00;98767.03;5071641;28;19920;-48
2022/09/18 00:47:41;;;;;;;;;;;;;;;13.12;100.00;98765.38;5072357;28;19924;-45
2022/09/18 00:50:07;;;;;;;;;;;;;;;13.59;100.00;98777.81;5054094;28;19924;-46
2022/09/18 00:52:36;;;;;;;;;;;;;;;13.23;100.00;98773.47;5073488;28;19977;-47
2022/09/18 00:55:03;;;;;;;;;;;;;;;13.32;100.00;98773.06;5074191;28;20057;-47
2022/09/18 00:57:31;;;;;;;;;;;;;;;12.86;100.00;98769.94;5053529;28;19920;-46
2022/09/18 00:59:57;;;;;;;;;;;;;;;13.09;100.00;98774.09;5072068;28;19923;-46
2022/09/18 01:02:22;;;;;;;;;;;;;;;13.49;100.00;98767.09;5072724;28;20377;-46
2022/09/18 01:04:47;;;;;;;;;;;;;;;13.57;100.00;98766.72;5072394;28;19931;-46
2022/09/18 01:07:13;;;;;;;;;;;;;;;13.71;100.00;98766.06;5071707;28;20540;-47
2022/09/18 01:09:44;;;;;;;;;;;;;;;13.77;100.00;98766.59;5073282;28;19921;-48
2022/09/18 01:12:24;;;;;;;;;;;;;;;14.22;100.00;98749.69;5072273;28;19920;-46
2022/09/18 01:14:56;;;;;;;;;;;;;;;13.97;100.00;98764.78;5053476;28;20377;-46
2022/09/18 01:17:40;;;;;;;;;;;;;;;14.00;100.00;98759.44;5053255;28;19967;-49
2022/09/18 01:20:16;;;;;;;;;;;;;;;14.29;100.00;98755.38;5055511;28;20985;-46
2022/09/18 01:22:44;;;;;;;;;;;;;;;13.97;100.00;98754.44;5072955;28;19916;-46
2022/09/18 01:25:12;;;;;;;;;;;;;;;14.31;100.00;98747.53;5071352;28;19972;-47
2022/09/18 01:27:40;;;;;;;;;;;;;;;14.33;100.00;98745.72;5071735;28;19917;-47
2022/09/18 01:30:06;;;;;;;;;;;;;;;14.59;100.00;98732.25;5071799;28;19923;-47
2022/09/18 01:32:31;;;;;;;;;;;;;;;13.96;100.00;98738.06;5071981;28;19926;-46
2022/09/18 01:35:08;;;;;;;;;;;;;;;14.10;100.00;98749.47;5072566;28;19916;-46
2022/09/18 01:37:41;;;;;;;;;;;;;;;13.81;100.00;98750.00;5053168;28;19981;-47
2022/09/18 01:40:23;;;;;;;;;;;;;;;14.09;100.00;98746.03;5052580;28;19924;-46
2022/09/18 01:42:49;;;;;;;;;;;;;;;14.11;100.00;98741.63;5072594;28;19926;-46
2022/09/18 01:45:15;;;;;;;;;;;;;;;13.67;100.00;98754.19;5052582;28;19920;-45
2022/09/18 01:47:44;;;;;;;;;;;;;;;13.93;100.00;98753.72;5040021;28;20098;-47
2022/09/18 01:50:09;;;;;;;;;;;;;;;13.78;100.00;98744.97;5053416;28;19924;-46
2022/09/18 01:52:37;;;;;;;;;;;;;;;14.03;100.00;98748.94;5051516;28;19919;-46
2022/09/18 01:55:02;;;;;;;;;;;;;;;13.93;100.00;98745.13;5054024;28;19920;-46
2022/09/18 01:57:36;;;;;;;;;;;;;;;14.68;100.00;98740.47;5071663;28;20008;-46
2022/09/18 02:00:09;;;;;;;;;;;;;;;13.90;100.00;98732.34;5053210;28;19963;-48
2022/09/18 02:02:42;;;;;;;;;;;;;;;13.99;100.00;98748.25;5071184;28;19927;-46
2022/09/18 02:05:10;;;;;;;;;;;;;;;13.61;100.00;98737.19;5054450;28;19959;-46
2022/09/18 02:07:38;;;;;;;;;;;;;;;13.43;100.00;98745.84;5036919;28;19920;-46
2022/09/18 02:10:04;;;;;;;;;;;;;;;13.89;100.00;98746.19;5053197;28;19928;-46
2022/09/18 02:12:29;;;;;;;;;;;;;;;14.01;100.00;98741.25;5071319;28;19973;-46
2022/09/18 02:14:55;;;;;;;;;;;;;;;13.88;100.00;98739.34;5054118;28;20262;-46
2022/09/18 02:17:22;;;;;;;;;;;;;;;14.06;100.00;98733.25;5056738;28;19924;-45
2022/09/18 02:19:51;;;;;;;;;;;;;;;14.01;100.00;98735.25;5076338;28;19920;-46
2022/09/18 02:22:17;;;;;;;;;;;;;;;13.29;100.00;98736.97;5072060;28;19924;-46
2022/09/18 02:24:43;;;;;;;;;;;;;;;13.92;100.00;98746.06;5029384;28;19926;-46
2022/09/18 02:27:10;;;;;;;;;;;;;;;14.02;100.00;98739.50;5057448;28;19931;-46
2022/09/18 02:29:35;;;;;;;;;;;;;;;14.64;100.00;98730.28;5054254;28;19928;-46
2022/09/18 02:32:00;;;;;;;;;;;;;;;14.14;100.00;98717.31;5057565;28;19916;-46
2022/09/18 02:34:27;;;;;;;;;;;;;;;13.93;100.00;98727.84;5074637;28;19920;-47
2022/09/18 02:36:59;;;;;;;;;;;;;;;14.32;100.00;98728.47;5056674;28;19951;-47
2022/09/18 02:39:27;;;;;;;;;;;;;;;14.30;100.00;98723.41;5075112;28;19928;-46
2022/09/18 02:41:52;;;;;;;;;;;;;;;14.32;100.00;98723.31;5075859;28;19922;-46
2022/09/18 02:44:19;;;;;;;;;;;;;;;13.90;100.00;98722.81;5074007;28;19920;-46
2022/09/18 02:46:54;;;;;;;;;;;;;;;14.01;100.00;98724.88;5056257;28;19920;-47
2022/09/18 02:49:32;;;;;;;;;;;;;;;13.96;100.00;98726.88;5074800;28;19981;-46
2022/09/18 02:52:01;;;;;;;;;;;;;;;14.02;100.00;98722.19;5056105;28;20391;-47
2022/09/18 02:54:29;;;;;;;;;;;;;;;14.27;100.00;98720.13;5074479;28;19920;-46
2022/09/18 02:56:55;;;;;;;;;;;;;;;13.73;100.00;98723.69;5056251;28;19916;-46
2022/09/18 02:59:21;;;;;;;;;;;;;;;13.96;100.00;98732.06;5056280;28;19920;-46
2022/09/18 03:01:47;;;;;;;;;;;;;;;14.01;100.00;98724.88;5057988;28;20411;-46
2022/09/18 03:04:13;;;;;;;;;;;;;;;13.98;100.00;98725.00;5073948;28;19916;-46
2022/09/18 03:06:38;;;;;;;;;;;;;;;13.77;100.00;98730.34;5074895;28;19916;-49
2022/09/18 03:09:03;;;;;;;;;;;;;;;13.69;100.00;98724.72;5075075;28;19970;-49
2022/09/18 03:11:28;;;;;;;;;;;;;;;13.93;100.00;98732.19;5072193;28;19916;-48
2022/09/18 03:13:53;;;;;;;;;;;;;;;13.30;100.00;98737.84;5073905;28;19920;-46
2022/09/18 03:16:19;;;;;;;;;;;;;;;13.95;100.00;98738.97;5072349;28;19923;-46
2022/09/18 03:18:44;;;;;;;;;;;;;;;13.94;100.00;98736.47;5075078;28;19973;-47
2022/09/18 03:21:09;;;;;;;;;;;;;;;13.92;100.00;98731.34;5065424;28;20381;-46
2022/09/18 03:23:34;;;;;;;;;;;;;;;13.63;100.00;98729.38;5073676;28;20272;-47
2022/09/18 03:26:00;;;;;;;;;;;;;;;13.85;100.00;98735.16;5072310;28;20647;-48
2022/09/18 03:28:25;;;;;;;;;;;;;;;13.74;100.00;98733.09;5074595;28;20341;-50
2022/09/18 03:30:50;;;;;;;;;;;;;;;13.72;100.00;98732.34;5074977;28;20463;-46
2022/09/18 03:33:16;;;;;;;;;;;;;;;14.02;100.00;98729.13;5074887;28;20444;-48
2022/09/18 03:35:42;;;;;;;;;;;;;;;13.95;100.00;98730.34;5072463;28;19924;-47
2022/09/18 03:38:07;;;;;;;;;;;;;;;14.25;100.00;98725.38;5074475;28;20030;-48
2022/09/18 03:40:32;;;;;;;;;;;;;;;13.94;100.00;98728.69;5073507;28;19996;-47
2022/09/18 03:42:57;;;;;;;;;;;;;;;14.16;100.00;98718.06;5075424;28;20030;-47
2022/09/18 03:45:23;;;;;;;;;;;;;;;14.16;100.00;98718.94;5074341;28;20085;-47
2022/09/18 03:47:48;;;;;;;;;;;;;;;13.99;100.00;98716.34;5072698;28;19931;-49
2022/09/18 03:50:13;;;;;;;;;;;;;;;14.29;100.00;98724.31;5074152;28;19920;-48
2022/09/18 03:52:39;;;;;;;;;;;;;;;14.35;100.00;98715.38;5054981;28;19924;-47
2022/09/18 03:55:04;;;;;;;;;;;;;;;14.38;100.00;98707.44;5074176;28;19956;-48
2022/09/18 03:57:29;;;;;;;;;;;;;;;14.66;100.00;98706.03;5072210;28;20011;-47
2022/09/18 03:59:55;;;;;;;;;;;;;;;13.92;100.00;98704.63;5074325;28;19958;-49
2022/09/18 04:02:20;;;;;;;;;;;;;;;14.17;100.00;98714.59;5071714;28;20006;-49
2022/09/18 04:04:45;;;;;;;;;;;;;;;13.70;100.00;98721.22;5047443;28;20590;-47
2022/09/18 04:07:10;;;;;;;;;;;;;;;14.31;100.00;98730.25;5072550;28;20385;-46
2022/09/18 04:09:36;;;;;;;;;;;;;;;14.13;100.00;98719.06;5073413;28;20701;-47
2022/09/18 04:12:01;;;;;;;;;;;;;;;13.92;100.00;98720.16;5072554;28;19920;-48
2022/09/18 04:14:26;;;;;;;;;;;;;;;13.91;100.00;98718.47;5073963;28;19997;-47
2022/09/18 04:16:51;;;;;;;;;;;;;;;14.03;100.00;98720.47;5071848;28;19919;-47
2022/09/18 04:19:17;;;;;;;;;;;;;;;13.68;100.00;98723.03;5073682;28;19920;-48
2022/09/18 04:21:42;;;;;;;;;;;;;;;14.07;100.00;98723.72;5071976;28;19927;-48
2022/09/18 04:24:07;;;;;;;;;;;;;;;13.66;100.00;98714.53;5072694;28;20814;-49
2022/09/18 04:26:33;;;;;;;;;;;;;;;13.60;100.00;98728.59;5072350;28;20732;-48
2022/09/18 04:28:58;;;;;;;;;;;;;;;13.71;100.00;98730.66;5072188;28;19920;-51
2022/09/18 04:31:23;;;;;;;;;;;;;;;13.81;100.00;98734.47;5073379;28;19924;-48
2022/09/18 04:33:49;;;;;;;;;;;;;;;14.01;100.00;98722.28;5071988;28;19920;-49
2022/09/18 04:36:14;;;;;;;;;;;;;;;13.97;100.00;98707.81;5071589;28;19927;-50
2022/09/18 04:38:39;;;;;;;;;;;;;;;13.86;100.00;98710.09;5072494;28;19920;-49
2022/09/18 04:41:04;;;;;;;;;;;;;;;13.56;100.00;98716.72;5073166;28;19955;-49
2022/09/18 04:43:30;;;;;;;;;;;;;;;13.95;100.00;98714.81;5071158;28;19948;-47
2022/09/18 04:45:55;;;;;;;;;;;;;;;14.21;100.00;98701.41;5072556;28;19968;-49
2022/09/18 04:48:20;;;;;;;;;;;;;;;14.23;100.00;98703.88;5068650;28;20015;-48
2022/09/18 04:50:46;;;;;;;;;;;;;;;13.95;100.00;98714.81;5072626;28;20010;-48
2022/09/18 04:53:11;;;;;;;;;;;;;;;14.31;100.00;98700.91;5071976;28;19920;-48
2022/09/18 04:55:38;;;;;;;;;;;;;;;14.26;100.00;98703.75;5073091;28;19927;-49
2022/09/18 04:58:03;;;;;;;;;;;;;;;14.04;100.00;98693.66;5052987;28;20262;-51
2022/09/18 05:00:28;;;;;;;;;;;;;;;14.54;100.00;98692.78;5071924;28;19988;-48
2022/09/18 05:02:54;;;;;;;;;;;;;;;14.14;100.00;98681.91;5071840;28;19920;-50
2022/09/18 05:05:19;;;;;;;;;;;;;;;14.89;100.00;98682.28;5071679;28;20367;-51
2022/09/18 05:07:44;;;;;;;;;;;;;;;14.63;100.00;98681.09;5072198;28;20361;-49
2022/09/18 05:10:09;;;;;;;;;;;;;;;14.95;100.00;98673.34;5070485;28;20822;-51
2022/09/18 05:12:35;;;;;;;;;;;;;;;15.02;100.00;98678.09;5072636;28;19962;-49
2022/09/18 05:15:00;;;;;;;;;;;;;;;15.40;100.00;98667.31;5072528;28;19916;-49
2022/09/18 05:17:25;;;;;;;;;;;;;;;14.78;100.00;98674.25;5071806;28;19916;-49
2022/09/18 05:19:51;;;;;;;;;;;;;;;15.18;100.00;98674.66;5072242;28;19920;-49
2022/09/18 05:22:16;;;;;;;;;;;;;;;15.08;100.00;98676.09;5072467;28;20704;-48
2022/09/18 05:24:41;;;;;;;;;;;;;;;14.73;100.00;98671.06;5073080;28;20003;-48
2022/09/18 05:27:06;;;;;;;;;;;;;;;15.08;100.00;98679.53;5071566;28;19916;-50
2022/09/18 05:29:32;;;;;;;;;;;;;;;15.19;100.00;98671.97;5071289;28;20020;-50
2022/09/18 05:31:57;;;;;;;;;;;;;;;14.94;100.00;98669.91;5072175;28;19920;-48
2022/09/18 05:34:22;;;;;;;;;;;;;;;15.08;100.00;98665.72;5071004;28;20023;-48
2022/09/18 05:36:47;;;;;;;;;;;;;;;14.67;100.00;98661.06;5071289;28;20442;-51
2022/09/18 05:39:13;;;;;;;;;;;;;;;14.84;100.00;98663.53;5072887;28;20385;-48
2022/09/18 05:41:38;;;;;;;;;;;;;;;15.23;100.00;98662.25;5071976;28;20385;-50
2022/09/18 05:44:03;;;;;;;;;;;;;;;14.99;100.00;98657.53;5069930;28;20285;-49
2022/09/18 05:46:28;;;;;;;;;;;;;;;14.94;100.00;98662.13;5070633;28;19974;-50
2022/09/18 05:48:54;;;;;;;;;;;;;;;14.50;100.00;98669.69;5072905;28;20352;-50
2022/09/18 05:51:19;;;;;;;;;;;;;;;13.75;100.00;98687.34;5075806;28;19920;-48
2022/09/18 05:53:47;;;;;;;;;;;;;;;13.88;100.00;98696.16;5074289;28;20062;-48
2022/09/18 05:56:13;;;;;;;;;;;;;;;14.18;100.00;98687.75;5075495;28;19931;-49
2022/09/18 05:58:38;;;;;;;;;;;;;;;13.78;100.00;98703.56;5074926;28;20732;-47
2022/09/18 06:01:03;;;;;;;;;;;;;;;13.79;100.00;98710.41;5075327;28;20297;-49
2022/09/18 06:03:29;;;;;;;;;;;;;;;13.92;100.00;98715.81;5074237;28;20403;-48
2022/09/18 06:05:54;;;;;;;;;;;;;;;13.95;100.00;98720.00;5075400;28;20034;-48
2022/09/18 06:08:19;;;;;;;;;;;;;;;13.34;100.00;98724.69;5074725;28;20318;-42
2022/09/18 06:10:45;;;;;;;;;;;;;;;13.61;100.00;98734.59;5075385;28;19923;-43
2022/09/18 06:13:11;;;;;;;;;;;;;;;13.80;100.00;98739.75;5074852;28;20442;-43
2022/09/18 06:15:37;;;;;;;;;;;;;;;13.62;100.00;98738.88;5074091;28;20444;-43
2022/09/18 06:18:03;;;;;;;;;;;;;;;13.85;100.00;98752.44;5073578;28;19928;-42
2022/09/18 06:20:28;;;;;;;;;;;;;;;13.54;100.00;98761.69;5057374;28;19920;-43
2022/09/18 06:22:53;;;;;;;;;;;;;;;13.69;100.00;98766.13;5075668;28;19935;-43
2022/09/18 06:25:20;;;;;;;;;;;;;;;13.62;100.00;98758.75;5056431;28;19927;-42
2022/09/18 06:27:46;;;;;;;;;;;;;;;13.19;100.00;98767.59;5075856;28;19916;-42
2022/09/18 06:30:12;;;;;;;;;;;;;;;13.87;100.00;98779.09;5076373;28;19927;-43
2022/09/18 06:32:37;;;;;;;;;;;;;;;13.56;100.00;98780.56;5076103;28;19966;-43
2022/09/18 06:35:02;;;;;;;;;;;;;;;13.87;100.00;98779.09;5074676;28;19919;-43
2022/09/18 06:37:27;;;;;;;;;;;;;;;13.15;100.00;98775.56;5074483;28;20000;-42
2022/09/18 06:39:53;;;;;;;;;;;;;;;13.44;100.00;98782.00;5075757;28;19920;-42
2022/09/18 06:42:18;;;;;;;;;;;;;;;13.56;100.00;98791.75;5075101;28;19923;-42
2022/09/18 06:44:43;;;;;;;;;;;;;;;13.46;100.00;98789.69;5073295;28;19924;-42
2022/09/18 06:47:08;;;;;;;;;;;;;;;13.29;100.00;98796.47;5074761;28;20007;-42
2022/09/18 06:49:34;;;;;;;;;;;;;;;13.65;100.00;98806.00;5074241;28;19970;-42
2022/09/18 06:51:59;;;;;;;;;;;;;;;13.90;100.00;98799.66;5076083;28;19952;-42
2022/09/18 06:54:24;;;;;;;;;;;;;;;13.81;100.00;98799.19;5074570;28;19955;-42
2022/09/18 06:56:49;;;;;;;;;;;;;;;14.04;100.00;98798.97;5059641;28;19959;-43
2022/09/18 06:59:15;;;;;;;;;;;;;;;13.68;100.00;98795.50;5074572;28;20284;-42
2022/09/18 07:01:40;;;;;;;;;;;;;;;13.73;100.00;98798.72;5074708;28;19919;-42
2022/09/18 07:04:05;;;;;;;;;;;;;;;14.06;100.00;98795.38;5056579;28;19920;-42
2022/09/18 07:06:30;;;;;;;;;;;;;;;14.22;100.00;98791.13;5074258;28;19931;-42
2022/09/18 07:08:56;;;;;;;;;;;;;;;14.18;100.00;98791.34;5072890;28;19924;-43
2022/09/18 07:11:21;;;;;;;;;;;;;;;14.53;100.00;98794.75;5072538;28;21588;-43
2022/09/18 07:13:47;;;;;;;;;;;;;;;14.10;100.00;98789.16;5073170;28;20370;-42
2022/09/18 07:16:12;;;;;;;;;;;;;;;14.30;100.00;98797.66;5073189;28;19924;-42
2022/09/18 07:18:37;;;;;;;;;;;;;;;14.58;100.00;98782.41;5071467;28;19920;-43
2022/09/18 07:21:03;;;;;;;;;;;;;;;15.04;100.00;98772.19;5074185;28;19971;-43
2022/09/18 07:23:30;;;;;;;;;;;;;;;14.63;100.00;98764.03;5074098;28;19931;-43
2022/09/18 07:25:57;;;;;;;;;;;;;;;14.38;100.00;98774.81;5072993;28;19970;-43
2022/09/18 07:28:22;;;;;;;;;;;;;;;14.64;100.00;98763.97;5071889;28;20019;-44
2022/09/18 07:30:48;;;;;;;;;;;;;;;14.89;100.00;98754.03;5073768;28;19926;-43
2022/09/18 07:33:13;;;;;;;;;;;;;;;15.26;100.00;98747.72;5074374;28;19920;-43
2022/09/18 07:35:38;;;;;;;;;;;;;;;14.47;100.00;98753.59;5075585;28;19922;-43
2022/09/18 07:38:04;;;;;;;;;;;;;;;14.63;100.00;98753.69;5073195;28;19925;-43
2022/09/18 07:40:30;;;;;;;;;;;;;;;14.62;100.00;98755.44;5074549;28;20039;-43
2022/09/18 07:43:02;;;;;;;;;;;;;;;14.46;100.00;98756.25;5075483;28;20400;-44
2022/09/18 07:45:28;;;;;;;;;;;;;;;14.41;100.00;98753.91;5056615;28;19920;-43
2022/09/18 07:47:53;;;;;;;;;;;;;;;14.06;100.00;98761.72;5072962;28;19924;-43
2022/09/18 07:50:18;;;;;;;;;;;;;;;13.99;100.00;98768.13;5072482;28;19931;-43
2022/09/18 07:52:50;;;;;;;;;;;;;;;13.99;100.00;98774.13;5067263;28;19972;-43
2022/09/18 07:55:18;;;;;;;;;;;;;;;14.79;100.00;98779.63;5057063;28;19923;-43
2022/09/18 07:57:44;;;;;;;;;;;;;;;14.89;100.00;98767.84;5073156;28;20015;-43
2022/09/18 08:00:09;;;;;;;;;;;;;;;15.18;100.00;98755.88;5075526;28;19916;-43
2022/09/18 08:02:35;;;;;;;;;;;;;;;15.24;100.00;98746.94;5074280;28;19925;-43
2022/09/18 08:05:00;;;;;;;;;;;;;;;15.43;100.00;98742.41;5074750;28;19916;-43
2022/09/18 08:07:25;;;;;;;;;;;;;;;15.33;100.00;98730.03;5073930;28;20463;-43
2022/09/18 08:09:50;;;;;;;;;;;;;;;14.96;100.00;98740.69;5057243;28;20344;-43
2022/09/18 08:12:16;;;;;;;;;;;;;;;14.94;100.00;98747.69;5074152;28;20377;-43
2022/09/18 08:14:41;;;;;;;;;;;;;;;14.92;100.00;98744.34;5074622;28;20454;-43
2022/09/18 08:17:06;;;;;;;;;;;;;;;14.93;100.00;98750.38;5074196;28;20475;-43
2022/09/18 08:19:31;;;;;;;;;;;;;;;14.36;100.00;98756.75;5073520;28;19921;-43
2022/09/18 08:21:57;;;;;;;;;;;;;;;14.97;100.00;98760.50;5073771;28;19962;-43
2022/09/18 08:24:22;;;;;;;;;;;;;;;14.72;100.00;98754.94;5074394;28;19923;-43
2022/09/18 08:26:47;;;;;;;;;;;;;;;15.03;100.00;98752.41;5074206;28;19948;-43
2022/09/18 08:29:17;;;;;;;;;;;;;;;14.69;100.00;98753.34;5073041;28;20219;-43
2022/09/18 08:31:43;;;;;;;;;;;;;;;14.78;100.00;98752.00;5044740;28;19920;-43
2022/09/18 08:34:08;;;;;;;;;;;;;;;14.95;100.00;98757.13;5073267;28;19920;-44
2022/09/18 08:36:34;;;;;;;;;;;;;;;14.48;100.00;98742.31;5073373;28;21014;-44
2022/09/18 08:38:59;;;;;;;;;;;;;;;14.55;100.00;98745.44;5072985;28;19916;-46
2022/09/18 08:41:28;;;;;;;;;;;;;;;14.41;100.00;98751.31;5074294;28;19916;-46
2022/09/18 08:44:01;;;;;;;;;;;;;;;13.82;100.00;98756.00;5074022;28;20365;-44
2022/09/18 08:46:47;;;;;;;;;;;;;;;14.29;100.00;98762.31;5073097;28;20850;-44
2022/09/18 08:49:21;;;;;;;;;;;;;;;14.14;100.00;98759.59;5074124;28;19919;-45
2022/09/18 08:51:51;;;;;;;;;;;;;;;14.50;100.00;98748.25;5073791;28;19916;-44
2022/09/18 08:54:22;;;;;;;;;;;;;;;14.63;100.00;98753.69;5054170;28;19924;-46
2022/09/18 08:56:47;;;;;;;;;;;;;;;14.47;100.00;98753.59;5054749;28;19923;-44
2022/09/18 08:59:18;;;;;;;;;;;;;;;14.51;100.00;98747.34;5073386;28;19916;-45
2022/09/18 09:01:45;;;;;;;;;;;;;;;14.60;100.00;98744.31;5055553;28;19955;-44
2022/09/18 09:04:16;;;;;;;;;;;;;;;14.76;100.00;98754.72;5073052;28;20358;-44
2022/09/18 09:06:55;;;;;;;;;;;;;;;14.99;100.00;98756.06;5054319;28;19915;-44
2022/09/18 09:09:30;;;;;;;;;;;;;;;14.95;100.00;98753.72;5038224;28;19920;-44
2022/09/18 09:11:58;;;;;;;;;;;;;;;15.56;100.00;98747.75;5073864;28;19999;-44
2022/09/18 09:14:42;;;;;;;;;;;;;;;15.97;100.00;98730.75;5072602;28;20521;-45
2022/09/18 09:17:14;;;;;;;;;;;;;;;16.15;100.00;98731.41;5072580;28;19927;-45
2022/09/18 09:19:49;;;;;;;;;;;;;;;15.44;100.00;98720.72;5055350;28;20022;-45
2022/09/18 09:22:18;;;;;;;;;;;;;;;15.63;100.00;98720.50;5072736;28;19920;-45
2022/09/18 09:24:43;;;;;;;;;;;;;;;15.42;100.00;98717.38;5072684;28;20466;-45
2022/09/18 09:27:16;;;;;;;;;;;;;;;15.48;100.00;98714.41;5073168;28;19916;-44
2022/09/18 09:29:42;;;;;;;;;;;;;;;15.12;100.00;98713.88;5055024;28;19927;-45
2022/09/18 09:32:16;;;;;;;;;;;;;;;14.67;100.00;98718.91;5074011;28;20586;-46
2022/09/18 09:34:49;;;;;;;;;;;;;;;14.55;100.00;98720.41;5072023;28;19912;-46
2022/09/18 09:37:16;;;;;;;;;;;;;;;14.67;100.00;98723.25;5055110;28;19916;-46
2022/09/18 09:39:51;;;;;;;;;;;;;;;15.12;100.00;98724.25;5025029;28;19916;-46
2022/09/18 09:42:22;;;;;;;;;;;;;;;15.47;100.00;98715.34;5054104;28;19923;-45
2022/09/18 09:45:07;;;;;;;;;;;;;;;15.52;100.00;98706.47;5072725;28;19923;-46
2022/09/18 09:47:37;;;;;;;;;;;;;;;15.20;100.00;98716.91;5070881;28;19920;-45
2022/09/18 09:50:02;;;;;;;;;;;;;;;15.12;100.00;98708.69;5072393;28;19949;-46
2022/09/18 09:52:28;;;;;;;;;;;;;;;15.56;100.00;98703.63;5071982;28;19920;-45
2022/09/18 09:55:01;;;;;;;;;;;;;;;15.19;100.00;98704.84;5072219;28;19927;-46
2022/09/18 09:57:33;;;;;;;;;;;;;;;14.55;100.00;98698.81;5052783;28;19916;-47
2022/09/18 10:00:14;;;;;;;;;;;;;;;15.08;100.00;98708.06;5054757;28;20764;-45
2022/09/18 10:03:18;;;;;;;;;;;;;;;14.30;100.00;98710.44;5072657;28;20460;-46
2022/09/18 10:05:46;;;;;;;;;;;;;;;14.95;100.00;98717.41;4989219;28;19922;-46
2022/09/18 10:08:26;;;;;;;;;;;;;;;14.91;100.00;98716.72;4990532;28;19993;-46
2022/09/18 10:10:53;;;;;;;;;;;;;;;14.34;100.00;98708.53;5020038;28;20008;-46
2022/09/18 10:13:24;;;;;;;;;;;;;;;14.23;100.00;98709.94;5038334;28;19916;-46
2022/09/18 10:15:50;;;;;;;;;;;;;;;14.27;100.00;98723.53;5052149;28;20685;-45
2022/09/18 10:18:26;;;;;;;;;;;;;;;14.63;100.00;98723.41;5053704;28;19927;-45
2022/09/18 10:20:53;;;;;;;;;;;;;;;14.35;100.00;98733.53;5071741;28;20656;-45
2022/09/18 10:23:30;;;;;;;;;;;;;;;13.80;100.00;98732.81;5072520;28;19920;-45
2022/09/18 10:25:57;;;;;;;;;;;;;;;14.47;100.00;98730.28;5071211;28;19982;-44
2022/09/18 10:28:24;;;;;;;;;;;;;;;14.67;100.00;98729.28;5052196;28;19927;-45
2022/09/18 10:30:53;;;;;;;;;;;;;;;14.55;100.00;98716.94;5054460;28;19920;-46
2022/09/18 10:33:45;;;;;;;;;;;;;;;14.04;100.00;98734.25;5053831;28;20021;-45
2022/09/18 10:36:14;;;;;;;;;;;;;;;14.05;100.00;98736.75;5070986;28;19912;-45
2022/09/18 10:38:39;;;;;;;;;;;;;;;14.23;100.00;98741.00;5054556;28;20019;-46
2022/09/18 10:41:25;;;;;;;;;;;;;;;13.77;100.00;98743.28;5074808;28;19934;-46
2022/09/18 10:44:10;;;;;;;;;;;;;;;14.47;100.00;98740.66;5074413;28;20895;-45
2022/09/18 10:46:35;;;;;;;;;;;;;;;13.85;100.00;98742.09;5060240;28;19920;-46
2022/09/18 10:49:21;;;;;;;;;;;;;;;14.47;100.00;98751.00;5055503;28;19970;-46
2022/09/18 10:51:46;;;;;;;;;;;;;;;15.09;100.00;98735.66;5074345;28;20060;-47
2022/09/18 10:54:15;;;;;;;;;;;;;;;15.25;100.00;98730.44;5074293;28;19916;-46
2022/09/18 10:56:41;;;;;;;;;;;;;;;14.79;100.00;98717.41;5070511;28;20295;-48
2022/09/18 10:59:12;;;;;;;;;;;;;;;14.68;100.00;98719.75;5073410;28;19920;-46
2022/09/18 11:01:38;;;;;;;;;;;;;;;14.83;100.00;98718.91;5071979;28;19920;-48
2022/09/18 11:04:03;;;;;;;;;;;;;;;14.74;100.00;98714.22;5074670;28;19939;-46
2022/09/18 11:06:30;;;;;;;;;;;;;;;14.83;100.00;98717.16;5055780;28;19956;-46
2022/09/18 11:08:55;;;;;;;;;;;;;;;14.76;100.00;98713.22;5053935;28;19981;-45
2022/09/18 11:11:23;;;;;;;;;;;;;;;14.82;100.00;98709.47;5056101;28;19923;-45
2022/09/18 11:13:49;;;;;;;;;;;;;;;15.15;100.00;98713.75;5072788;28;19916;-46
2022/09/18 11:16:20;;;;;;;;;;;;;;;14.34;100.00;98714.53;5054564;28;20061;-46
2022/09/18 11:18:46;;;;;;;;;;;;;;;15.16;100.00;98715.41;5040312;28;20984;-46
2022/09/18 11:21:11;;;;;;;;;;;;;;;14.40;100.00;98706.44;5073766;28;19912;-46
2022/09/18 11:23:40;;;;;;;;;;;;;;;14.29;100.00;98710.53;5072665;28;19947;-45
2022/09/18 11:26:19;;;;;;;;;;;;;;;14.95;100.00;98692.31;5073760;28;20707;-45
2022/09/18 11:29:01;;;;;;;;;;;;;;;14.86;100.00;98687.63;5074298;28;19920;-45
2022/09/18 11:31:33;;;;;;;;;;;;;;;14.59;100.00;98684.78;5074859;28;19916;-45
2022/09/18 11:33:58;;;;;;;;;;;;;;;14.44;100.00;98681.22;5073574;28;20035;-45
2022/09/18 11:36:25;;;;;;;;;;;;;;;14.63;100.00;98681.09;5074478;28;19916;-46
2022/09/18 11:38:50;;;;;;;;;;;;;;;14.37;100.00;98674.69;5056271;28;20028;-45
2022/09/18 11:41:41;;;;;;;;;;;;;;;13.86;100.00;98679.06;5056832;28;19920;-47
2022/09/18 11:44:09;;;;;;;;;;;;;;;13.85;100.00;98682.56;5069803;28;19920;-46
2022/09/18 11:46:49;;;;;;;;;;;;;;;14.33;100.00;98686.97;5072996;28;20018;-45
2022/09/18 11:49:15;;;;;;;;;;;;;;;14.10;100.00;98679.56;5056765;28;19924;-46
2022/09/18 11:51:41;;;;;;;;;;;;;;;14.46;100.00;98688.91;5074990;28;19916;-45
2022/09/18 11:54:07;;;;;;;;;;;;;;;14.44;100.00;98679.47;5072627;28;19977;-45
2022/09/18 11:56:52;;;;;;;;;;;;;;;14.57;100.00;98677.09;5054881;28;19916;-45
2022/09/18 11:59:34;;;;;;;;;;;;;;;15.34;100.00;98675.44;5074226;28;19916;-45
2022/09/18 12:02:00;;;;;;;;;;;;;;;16.15;100.00;98669.06;5056551;28;19916;-46
2022/09/18 12:04:35;;;;;;;;;;;;;;;15.21;100.00;98662.34;5053782;28;19923;-45
2022/09/18 12:07:19;;;;;;;;;;;;;;;15.39;100.00;98662.22;5074437;28;19923;-46
2022/09/18 12:09:47;;;;;;;;;;;;;;;14.99;100.00;98665.31;5056459;28;19951;-45
2022/09/18 12:12:15;;;;;;;;;;;;;;;14.61;100.00;98663.03;5073780;28;20262;-46
2022/09/18 12:14:44;;;;;;;;;;;;;;;15.13;100.00;98661.94;5055485;28;19920;-45
2022/09/18 12:17:16;;;;;;;;;;;;;;;14.53;100.00;98657.41;5054671;28;20767;-45
2022/09/18 12:19:48;;;;;;;;;;;;;;;14.32;100.00;98661.13;5074424;28;20003;-45
2022/09/18 12:22:13;;;;;;;;;;;;;;;14.78;100.00;98659.56;5055976;28;19916;-46
2022/09/18 12:24:38;;;;;;;;;;;;;;;14.76;100.00;98663.16;5072230;28;19931;-45
2022/09/18 12:27:09;;;;;;;;;;;;;;;14.61;100.00;98678.59;5072843;28;19928;-45
2022/09/18 12:29:38;;;;;;;;;;;;;;;15.10;100.00;98669.03;5073184;28;20034;-47
2022/09/18 12:32:11;;;;;;;;;;;;;;;14.67;100.00;98674.00;5072452;28;19920;-47
2022/09/18 12:34:36;;;;;;;;;;;;;;;15.05;100.00;98672.75;5070769;28;19952;-48
2022/09/18 12:37:10;;;;;;;;;;;;;;;15.08;100.00;98673.50;5064863;28;20024;-46
2022/09/18 12:39:41;;;;;;;;;;;;;;;14.04;100.00;98698.81;5061877;28;20312;-46